Terminal Aerodrome Forecast
Issued by NWS Jackson, KY

Home | Current Version | Previous Version | Text Only | Print | Product List | Glossary On
Versions: 1 2 3 4 5 6 7 8 9 10 11 12 13 14 15 16 17 18
000
FTUS43 KJKL 041127
TAFLOZ
TAF
KLOZ 041127Z 0412/0512 35010KT 6SM -RA BKN006 OVC018
     FM050200 22008KT 3SM -RAPL BR OVC004
     FM050900 35008KT 1/4SM +SN OVC004=

USA.gov is the U.S. government's official web portal to all federal, state and local government web resources and services.